sensor_id;sensor_type;location;lat;lon;timestamp;P1;durP1;ratioP1;P2;durP2;ratioP2
47519;SDS011;33252;48.122;11.538;2023-04-03T00:01:35;10.77;;;6.70;;
47519;SDS011;33252;48.122;11.538;2023-04-03T00:04:03;13.23;;;7.60;;
47519;SDS011;33252;48.122;11.538;2023-04-03T00:06:30;16.55;;;7.97;;
47519;SDS011;33252;48.122;11.538;2023-04-03T00:08:56;9.98;;;7.30;;
47519;SDS011;33252;48.122;11.538;2023-04-03T00:11:21;12.35;;;7.38;;
47519;SDS011;33252;48.122;11.538;2023-04-03T00:13:47;13.02;;;6.57;;
47519;SDS011;33252;48.122;11.538;2023-04-03T00:16:13;11.15;;;7.70;;
47519;SDS011;33252;48.122;11.538;2023-04-03T00:18:39;11.93;;;6.80;;
47519;SDS011;33252;48.122;11.538;2023-04-03T00:21:05;8.10;;;5.90;;
47519;SDS011;33252;48.122;11.538;2023-04-03T00:23:31;11.05;;;7.32;;
47519;SDS011;33252;48.122;11.538;2023-04-03T00:25:57;7.80;;;6.97;;
47519;SDS011;33252;48.122;11.538;2023-04-03T00:28:23;10.55;;;7.55;;
47519;SDS011;33252;48.122;11.538;2023-04-03T00:30:49;10.30;;;7.15;;
47519;SDS011;33252;48.122;11.538;2023-04-03T00:33:15;10.48;;;7.03;;
47519;SDS011;33252;48.122;11.538;2023-04-03T00:35:41;10.27;;;6.47;;
47519;SDS011;33252;48.122;11.538;2023-04-03T00:38:07;9.77;;;6.55;;
47519;SDS011;33252;48.122;11.538;2023-04-03T00:40:37;10.50;;;7.78;;
47519;SDS011;33252;48.122;11.538;2023-04-03T00:43:10;10.77;;;7.97;;
47519;SDS011;33252;48.122;11.538;2023-04-03T00:45:39;9.43;;;6.07;;
47519;SDS011;33252;48.122;11.538;2023-04-03T00:48:08;11.10;;;7.05;;
47519;SDS011;33252;48.122;11.538;2023-04-03T00:50:41;9.50;;;6.45;;
47519;SDS011;33252;48.122;11.538;2023-04-03T00:53:09;8.48;;;6.43;;
47519;SDS011;33252;48.122;11.538;2023-04-03T00:55:39;11.65;;;6.82;;
47519;SDS011;33252;48.122;11.538;2023-04-03T00:58:06;7.65;;;5.68;;
47519;SDS011;33252;48.122;11.538;2023-04-03T01:00:33;8.02;;;7.15;;
47519;SDS011;33252;48.122;11.538;2023-04-03T01:03:00;10.95;;;6.85;;
47519;SDS011;33252;48.122;11.538;2023-04-03T01:05:26;8.10;;;6.57;;
47519;SDS011;33252;48.122;11.538;2023-04-03T01:07:52;14.43;;;6.55;;
47519;SDS011;33252;48.122;11.538;2023-04-03T01:10:18;8.15;;;6.60;;
47519;SDS011;33252;48.122;11.538;2023-04-03T01:12:49;9.45;;;6.82;;
47519;SDS011;33252;48.122;11.538;2023-04-03T01:15:22;8.75;;;6.20;;
47519;SDS011;33252;48.122;11.538;2023-04-03T01:17:53;9.18;;;6.88;;
47519;SDS011;33252;48.122;11.538;2023-04-03T01:25:36;11.05;;;6.47;;
47519;SDS011;33252;48.122;11.538;2023-04-03T01:28:08;11.02;;;7.47;;
47519;SDS011;33252;48.122;11.538;2023-04-03T01:30:58;10.75;;;6.30;;
47519;SDS011;33252;48.122;11.538;2023-04-03T01:33:27;8.63;;;6.72;;
47519;SDS011;33252;48.122;11.538;2023-04-03T01:35:53;6.38;;;5.40;;
47519;SDS011;33252;48.122;11.538;2023-04-03T01:38:19;9.63;;;7.13;;
47519;SDS011;33252;48.122;11.538;2023-04-03T01:40:45;9.68;;;6.82;;
47519;SDS011;33252;48.122;11.538;2023-04-03T01:43:11;9.82;;;6.95;;
47519;SDS011;33252;48.122;11.538;2023-04-03T01:45:37;9.55;;;7.18;;
47519;SDS011;33252;48.122;11.538;2023-04-03T01:48:02;9.57;;;6.72;;
47519;SDS011;33252;48.122;11.538;2023-04-03T01:50:28;10.77;;;7.15;;
47519;SDS011;33252;48.122;11.538;2023-04-03T01:52:54;10.40;;;6.82;;
47519;SDS011;33252;48.122;11.538;2023-04-03T01:55:20;9.57;;;6.82;;
47519;SDS011;33252;48.122;11.538;2023-04-03T01:57:45;10.50;;;6.28;;
47519;SDS011;33252;48.122;11.538;2023-04-03T02:00:11;10.63;;;7.32;;
47519;SDS011;33252;48.122;11.538;2023-04-03T02:02:37;9.45;;;6.78;;
47519;SDS011;33252;48.122;11.538;2023-04-03T02:05:03;7.35;;;5.85;;
47519;SDS011;33252;48.122;11.538;2023-04-03T02:07:29;9.25;;;6.32;;
47519;SDS011;33252;48.122;11.538;2023-04-03T02:09:55;8.57;;;6.30;;
47519;SDS011;33252;48.122;11.538;2023-04-03T02:12:20;9.40;;;6.85;;
47519;SDS011;33252;48.122;11.538;2023-04-03T02:14:46;8.52;;;6.20;;
47519;SDS011;33252;48.122;11.538;2023-04-03T02:17:11;10.95;;;7.40;;
47519;SDS011;33252;48.122;11.538;2023-04-03T02:19:37;8.40;;;6.28;;
47519;SDS011;33252;48.122;11.538;2023-04-03T02:22:03;9.18;;;6.18;;
47519;SDS011;33252;48.122;11.538;2023-04-03T02:24:29;8.88;;;6.82;;
47519;SDS011;33252;48.122;11.538;2023-04-03T02:26:55;10.93;;;6.30;;
47519;SDS011;33252;48.122;11.538;2023-04-03T02:29:21;6.57;;;5.43;;
47519;SDS011;33252;48.122;11.538;2023-04-03T02:31:47;9.57;;;5.60;;
47519;SDS011;33252;48.122;11.538;2023-04-03T02:34:13;9.18;;;5.82;;
47519;SDS011;33252;48.122;11.538;2023-04-03T02:36:38;8.00;;;5.10;;
47519;SDS011;33252;48.122;11.538;2023-04-03T02:39:04;9.30;;;6.55;;
47519;SDS011;33252;48.122;11.538;2023-04-03T02:41:30;8.00;;;5.10;;
47519;SDS011;33252;48.122;11.538;2023-04-03T02:44:03;7.57;;;5.68;;
47519;SDS011;33252;48.122;11.538;2023-04-03T02:46:29;7.40;;;6.07;;
47519;SDS011;33252;48.122;11.538;2023-04-03T02:48:55;7.25;;;5.20;;
47519;SDS011;33252;48.122;11.538;2023-04-03T02:51:21;9.32;;;5.10;;
47519;SDS011;33252;48.122;11.538;2023-04-03T02:53:48;6.55;;;5.15;;
47519;SDS011;33252;48.122;11.538;2023-04-03T02:56:14;9.40;;;4.43;;
47519;SDS011;33252;48.122;11.538;2023-04-03T02:58:40;7.50;;;4.82;;
47519;SDS011;33252;48.122;11.538;2023-04-03T03:01:06;6.88;;;4.85;;
47519;SDS011;33252;48.122;11.538;2023-04-03T03:03:32;5.88;;;4.40;;
47519;SDS011;33252;48.122;11.538;2023-04-03T03:06:04;7.30;;;5.05;;
47519;SDS011;33252;48.122;11.538;2023-04-03T03:08:32;6.32;;;4.32;;
47519;SDS011;33252;48.122;11.538;2023-04-03T03:10:58;5.95;;;4.00;;
47519;SDS011;33252;48.122;11.538;2023-04-03T03:13:24;5.20;;;3.92;;
47519;SDS011;33252;48.122;11.538;2023-04-03T03:15:50;7.28;;;5.30;;
47519;SDS011;33252;48.122;11.538;2023-04-03T03:18:16;6.38;;;4.50;;
47519;SDS011;33252;48.122;11.538;2023-04-03T03:20:41;5.75;;;4.22;;
47519;SDS011;33252;48.122;11.538;2023-04-03T03:23:07;6.13;;;3.92;;
47519;SDS011;33252;48.122;11.538;2023-04-03T03:25:32;8.75;;;4.20;;
47519;SDS011;33252;48.122;11.538;2023-04-03T03:27:58;7.72;;;4.60;;
47519;SDS011;33252;48.122;11.538;2023-04-03T03:30:24;4.97;;;3.83;;
47519;SDS011;33252;48.122;11.538;2023-04-03T03:32:50;6.82;;;4.70;;
47519;SDS011;33252;48.122;11.538;2023-04-03T03:35:15;7.95;;;3.95;;
47519;SDS011;33252;48.122;11.538;2023-04-03T03:37:41;6.55;;;3.60;;
47519;SDS011;33252;48.122;11.538;2023-04-03T03:40:07;5.45;;;3.63;;
47519;SDS011;33252;48.122;11.538;2023-04-03T03:42:33;6.32;;;4.70;;
47519;SDS011;33252;48.122;11.538;2023-04-03T03:44:58;7.63;;;3.60;;
47519;SDS011;33252;48.122;11.538;2023-04-03T03:47:26;6.13;;;3.35;;
47519;SDS011;33252;48.122;11.538;2023-04-03T03:49:51;4.78;;;3.65;;
47519;SDS011;33252;48.122;11.538;2023-04-03T03:52:17;7.32;;;3.80;;
47519;SDS011;33252;48.122;11.538;2023-04-03T03:54:43;6.18;;;3.70;;
47519;SDS011;33252;48.122;11.538;2023-04-03T03:57:08;4.97;;;3.55;;
47519;SDS011;33252;48.122;11.538;2023-04-03T03:59:34;6.43;;;3.25;;
47519;SDS011;33252;48.122;11.538;2023-04-03T04:01:59;5.70;;;3.55;;
47519;SDS011;33252;48.122;11.538;2023-04-03T04:04:25;6.32;;;3.60;;
47519;SDS011;33252;48.122;11.538;2023-04-03T04:06:51;6.32;;;3.33;;
47519;SDS011;33252;48.122;11.538;2023-04-03T04:09:17;5.10;;;3.97;;
47519;SDS011;33252;48.122;11.538;2023-04-03T04:11:43;5.10;;;3.13;;
47519;SDS011;33252;48.122;11.538;2023-04-03T04:14:10;4.28;;;3.10;;
47519;SDS011;33252;48.122;11.538;2023-04-03T04:16:37;5.63;;;3.85;;
47519;SDS011;33252;48.122;11.538;2023-04-03T04:19:03;6.00;;;3.05;;
47519;SDS011;33252;48.122;11.538;2023-04-03T04:21:28;5.72;;;3.85;;
47519;SDS011;33252;48.122;11.538;2023-04-03T04:23:54;6.43;;;3.70;;
47519;SDS011;33252;48.122;11.538;2023-04-03T04:26:20;7.82;;;3.60;;
47519;SDS011;33252;48.122;11.538;2023-04-03T04:28:46;5.47;;;3.28;;
47519;SDS011;33252;48.122;11.538;2023-04-03T04:31:11;6.57;;;3.72;;
47519;SDS011;33252;48.122;11.538;2023-04-03T04:33:37;5.80;;;3.83;;
47519;SDS011;33252;48.122;11.538;2023-04-03T04:36:03;4.38;;;2.78;;
47519;SDS011;33252;48.122;11.538;2023-04-03T04:38:28;5.50;;;3.35;;
47519;SDS011;33252;48.122;11.538;2023-04-03T04:40:54;4.88;;;2.90;;
47519;SDS011;33252;48.122;11.538;2023-04-03T04:43:20;4.13;;;3.40;;
47519;SDS011;33252;48.122;11.538;2023-04-03T04:45:46;5.65;;;3.58;;
47519;SDS011;33252;48.122;11.538;2023-04-03T04:48:12;4.50;;;3.75;;
47519;SDS011;33252;48.122;11.538;2023-04-03T04:50:37;5.15;;;3.28;;
47519;SDS011;33252;48.122;11.538;2023-04-03T04:53:03;4.90;;;3.60;;
47519;SDS011;33252;48.122;11.538;2023-04-03T04:55:29;6.70;;;3.78;;
47519;SDS011;33252;48.122;11.538;2023-04-03T04:57:55;5.88;;;3.30;;
47519;SDS011;33252;48.122;11.538;2023-04-03T05:00:20;3.80;;;3.22;;
47519;SDS011;33252;48.122;11.538;2023-04-03T05:02:46;5.43;;;4.00;;
47519;SDS011;33252;48.122;11.538;2023-04-03T05:05:12;4.45;;;3.28;;
47519;SDS011;33252;48.122;11.538;2023-04-03T05:07:38;6.50;;;4.25;;
47519;SDS011;33252;48.122;11.538;2023-04-03T05:10:03;6.63;;;4.15;;
47519;SDS011;33252;48.122;11.538;2023-04-03T05:12:30;5.82;;;3.15;;
47519;SDS011;33252;48.122;11.538;2023-04-03T05:14:56;5.88;;;3.70;;
47519;SDS011;33252;48.122;11.538;2023-04-03T05:17:22;6.72;;;4.32;;
47519;SDS011;33252;48.122;11.538;2023-04-03T05:19:48;5.45;;;3.50;;
47519;SDS011;33252;48.122;11.538;2023-04-03T05:22:13;6.32;;;4.10;;
47519;SDS011;33252;48.122;11.538;2023-04-03T05:24:40;7.18;;;3.65;;
47519;SDS011;33252;48.122;11.538;2023-04-03T05:27:05;13.60;;;7.78;;
47519;SDS011;33252;48.122;11.538;2023-04-03T05:29:31;4.35;;;3.85;;
47519;SDS011;33252;48.122;11.538;2023-04-03T05:31:56;4.40;;;2.70;;
47519;SDS011;33252;48.122;11.538;2023-04-03T05:34:22;6.55;;;4.03;;
47519;SDS011;33252;48.122;11.538;2023-04-03T05:36:48;5.97;;;3.47;;
47519;SDS011;33252;48.122;11.538;2023-04-03T05:39:14;5.40;;;3.22;;
47519;SDS011;33252;48.122;11.538;2023-04-03T05:41:39;6.70;;;3.88;;
47519;SDS011;33252;48.122;11.538;2023-04-03T05:44:05;5.88;;;3.42;;
47519;SDS011;33252;48.122;11.538;2023-04-03T05:46:31;5.75;;;3.58;;
47519;SDS011;33252;48.122;11.538;2023-04-03T05:48:56;4.47;;;3.60;;
47519;SDS011;33252;48.122;11.538;2023-04-03T05:51:23;5.05;;;3.55;;
47519;SDS011;33252;48.122;11.538;2023-04-03T05:53:55;6.05;;;3.30;;
47519;SDS011;33252;48.122;11.538;2023-04-03T05:56:25;5.93;;;4.03;;
47519;SDS011;33252;48.122;11.538;2023-04-03T05:58:51;6.53;;;3.78;;
47519;SDS011;33252;48.122;11.538;2023-04-03T06:01:17;4.18;;;3.13;;
47519;SDS011;33252;48.122;11.538;2023-04-03T06:03:42;5.80;;;3.28;;
47519;SDS011;33252;48.122;11.538;2023-04-03T06:06:10;5.57;;;3.40;;
47519;SDS011;33252;48.122;11.538;2023-04-03T06:08:39;5.30;;;4.40;;
47519;SDS011;33252;48.122;11.538;2023-04-03T06:11:05;7.60;;;3.60;;
47519;SDS011;33252;48.122;11.538;2023-04-03T06:13:30;4.93;;;3.95;;
47519;SDS011;33252;48.122;11.538;2023-04-03T06:15:56;6.10;;;4.03;;
47519;SDS011;33252;48.122;11.538;2023-04-03T06:18:22;5.63;;;3.65;;
47519;SDS011;33252;48.122;11.538;2023-04-03T06:20:48;4.60;;;3.40;;
47519;SDS011;33252;48.122;11.538;2023-04-03T06:23:13;5.05;;;3.80;;
47519;SDS011;33252;48.122;11.538;2023-04-03T06:25:39;6.07;;;3.47;;
47519;SDS011;33252;48.122;11.538;2023-04-03T06:28:05;6.82;;;3.58;;
47519;SDS011;33252;48.122;11.538;2023-04-03T06:30:34;4.50;;;3.40;;
47519;SDS011;33252;48.122;11.538;2023-04-03T06:33:00;4.47;;;3.75;;
47519;SDS011;33252;48.122;11.538;2023-04-03T06:35:25;5.63;;;3.88;;
47519;SDS011;33252;48.122;11.538;2023-04-03T06:37:53;5.80;;;3.80;;
47519;SDS011;33252;48.122;11.538;2023-04-03T06:40:23;7.15;;;4.10;;
47519;SDS011;33252;48.122;11.538;2023-04-03T06:42:50;5.15;;;4.07;;
47519;SDS011;33252;48.122;11.538;2023-04-03T06:45:16;8.32;;;3.72;;
47519;SDS011;33252;48.122;11.538;2023-04-03T06:47:42;4.35;;;3.40;;
47519;SDS011;33252;48.122;11.538;2023-04-03T06:50:09;5.10;;;2.90;;
47519;SDS011;33252;48.122;11.538;2023-04-03T06:52:36;6.30;;;3.97;;
47519;SDS011;33252;48.122;11.538;2023-04-03T06:55:02;6.15;;;4.03;;
47519;SDS011;33252;48.122;11.538;2023-04-03T06:57:28;6.43;;;3.95;;
47519;SDS011;33252;48.122;11.538;2023-04-03T06:59:54;4.43;;;3.28;;
47519;SDS011;33252;48.122;11.538;2023-04-03T07:02:20;3.90;;;3.03;;
47519;SDS011;33252;48.122;11.538;2023-04-03T07:04:46;5.15;;;2.80;;
47519;SDS011;33252;48.122;11.538;2023-04-03T07:07:12;5.20;;;3.40;;
47519;SDS011;33252;48.122;11.538;2023-04-03T07:09:38;9.88;;;4.55;;
47519;SDS011;33252;48.122;11.538;2023-04-03T07:12:03;4.78;;;4.03;;
47519;SDS011;33252;48.122;11.538;2023-04-03T07:14:29;3.67;;;3.08;;
47519;SDS011;33252;48.122;11.538;2023-04-03T07:16:55;5.10;;;3.28;;
47519;SDS011;33252;48.122;11.538;2023-04-03T07:19:20;5.88;;;3.28;;
47519;SDS011;33252;48.122;11.538;2023-04-03T07:21:46;7.68;;;4.18;;
47519;SDS011;33252;48.122;11.538;2023-04-03T07:24:12;4.75;;;3.28;;
47519;SDS011;33252;48.122;11.538;2023-04-03T07:26:37;9.60;;;3.88;;
47519;SDS011;33252;48.122;11.538;2023-04-03T07:29:03;6.32;;;3.70;;
47519;SDS011;33252;48.122;11.538;2023-04-03T07:31:29;4.38;;;3.70;;
47519;SDS011;33252;48.122;11.538;2023-04-03T07:33:55;4.45;;;3.55;;
47519;SDS011;33252;48.122;11.538;2023-04-03T07:36:21;5.55;;;3.92;;
47519;SDS011;33252;48.122;11.538;2023-04-03T07:38:47;7.45;;;3.47;;
47519;SDS011;33252;48.122;11.538;2023-04-03T07:41:14;6.05;;;4.18;;
47519;SDS011;33252;48.122;11.538;2023-04-03T07:43:42;8.13;;;4.18;;
47519;SDS011;33252;48.122;11.538;2023-04-03T07:46:10;7.25;;;3.88;;
47519;SDS011;33252;48.122;11.538;2023-04-03T07:48:35;4.90;;;3.60;;
47519;SDS011;33252;48.122;11.538;2023-04-03T07:51:01;5.60;;;3.75;;
47519;SDS011;33252;48.122;11.538;2023-04-03T07:53:28;5.53;;;4.13;;
47519;SDS011;33252;48.122;11.538;2023-04-03T07:55:56;6.15;;;4.00;;
47519;SDS011;33252;48.122;11.538;2023-04-03T07:58:22;6.55;;;4.47;;
47519;SDS011;33252;48.122;11.538;2023-04-03T08:00:48;7.38;;;4.10;;
47519;SDS011;33252;48.122;11.538;2023-04-03T08:03:14;8.98;;;5.25;;
47519;SDS011;33252;48.122;11.538;2023-04-03T08:05:44;7.78;;;4.30;;
47519;SDS011;33252;48.122;11.538;2023-04-03T08:08:12;7.75;;;4.70;;
47519;SDS011;33252;48.122;11.538;2023-04-03T08:10:41;10.35;;;5.22;;
47519;SDS011;33252;48.122;11.538;2023-04-03T08:13:07;6.03;;;4.60;;
47519;SDS011;33252;48.122;11.538;2023-04-03T08:15:34;5.75;;;4.13;;
47519;SDS011;33252;48.122;11.538;2023-04-03T08:18:00;7.75;;;4.63;;
47519;SDS011;33252;48.122;11.538;2023-04-03T08:20:26;7.35;;;5.20;;
47519;SDS011;33252;48.122;11.538;2023-04-03T08:22:52;8.85;;;5.47;;
47519;SDS011;33252;48.122;11.538;2023-04-03T08:25:19;6.82;;;5.15;;
47519;SDS011;33252;48.122;11.538;2023-04-03T08:27:44;7.85;;;5.50;;
47519;SDS011;33252;48.122;11.538;2023-04-03T08:30:10;6.53;;;5.00;;
47519;SDS011;33252;48.122;11.538;2023-04-03T08:32:36;10.00;;;5.53;;
47519;SDS011;33252;48.122;11.538;2023-04-03T08:35:03;10.75;;;6.40;;
47519;SDS011;33252;48.122;11.538;2023-04-03T08:37:29;7.20;;;5.55;;
47519;SDS011;33252;48.122;11.538;2023-04-03T08:39:55;8.98;;;5.45;;
47519;SDS011;33252;48.122;11.538;2023-04-03T08:50:06;5.00;;;4.05;;
47519;SDS011;33252;48.122;11.538;2023-04-03T08:52:47;7.07;;;4.28;;
47519;SDS011;33252;48.122;11.538;2023-04-03T08:55:22;7.15;;;4.45;;
47519;SDS011;33252;48.122;11.538;2023-04-03T09:01:17;8.27;;;5.68;;
47519;SDS011;33252;48.122;11.538;2023-04-03T09:03:44;7.28;;;4.20;;
47519;SDS011;33252;48.122;11.538;2023-04-03T09:06:14;9.25;;;5.32;;
47519;SDS011;33252;48.122;11.538;2023-04-03T09:11:38;7.35;;;4.32;;
47519;SDS011;33252;48.122;11.538;2023-04-03T09:17:49;8.63;;;4.85;;
47519;SDS011;33252;48.122;11.538;2023-04-03T09:20:19;6.43;;;4.82;;
47519;SDS011;33252;48.122;11.538;2023-04-03T09:22:59;8.10;;;5.10;;
47519;SDS011;33252;48.122;11.538;2023-04-03T09:25:31;7.75;;;4.63;;
47519;SDS011;33252;48.122;11.538;2023-04-03T09:28:01;7.00;;;5.78;;
47519;SDS011;33252;48.122;11.538;2023-04-03T09:30:27;8.82;;;5.47;;
47519;SDS011;33252;48.122;11.538;2023-04-03T09:32:54;8.32;;;5.95;;
47519;SDS011;33252;48.122;11.538;2023-04-03T09:35:25;7.25;;;4.50;;
47519;SDS011;33252;48.122;11.538;2023-04-03T09:38:37;6.82;;;4.90;;
47519;SDS011;33252;48.122;11.538;2023-04-03T09:40:44;5.00;;;4.50;;
47519;SDS011;33252;48.122;11.538;2023-04-03T09:45:49;10.02;;;4.35;;
47519;SDS011;33252;48.122;11.538;2023-04-03T09:48:17;7.75;;;4.97;;
47519;SDS011;33252;48.122;11.538;2023-04-03T09:53:26;9.70;;;5.88;;
47519;SDS011;33252;48.122;11.538;2023-04-03T09:55:55;7.78;;;5.43;;
47519;SDS011;33252;48.122;11.538;2023-04-03T09:58:27;5.13;;;4.43;;
47519;SDS011;33252;48.122;11.538;2023-04-03T10:00:58;5.72;;;4.53;;
47519;SDS011;33252;48.122;11.538;2023-04-03T10:03:34;5.13;;;4.63;;
47519;SDS011;33252;48.122;11.538;2023-04-03T10:06:01;6.00;;;4.55;;
47519;SDS011;33252;48.122;11.538;2023-04-03T10:08:29;7.00;;;4.65;;
47519;SDS011;33252;48.122;11.538;2023-04-03T10:11:09;8.40;;;3.88;;
47519;SDS011;33252;48.122;11.538;2023-04-03T10:13:55;3.83;;;3.38;;
47519;SDS011;33252;48.122;11.538;2023-04-03T10:16:25;7.78;;;4.05;;
47519;SDS011;33252;48.122;11.538;2023-04-03T10:21:32;4.97;;;3.55;;
47519;SDS011;33252;48.122;11.538;2023-04-03T10:26:57;5.35;;;4.00;;
47519;SDS011;33252;48.122;11.538;2023-04-03T10:29:46;5.88;;;4.13;;
47519;SDS011;33252;48.122;11.538;2023-04-03T10:35:31;5.93;;;4.53;;
47519;SDS011;33252;48.122;11.538;2023-04-03T10:43:21;7.40;;;5.15;;
47519;SDS011;33252;48.122;11.538;2023-04-03T10:51:43;7.88;;;4.30;;
47519;SDS011;33252;48.122;11.538;2023-04-03T10:54:13;4.80;;;3.78;;
47519;SDS011;33252;48.122;11.538;2023-04-03T10:56:48;6.93;;;3.83;;
47519;SDS011;33252;48.122;11.538;2023-04-03T10:59:16;6.32;;;4.38;;
47519;SDS011;33252;48.122;11.538;2023-04-03T11:04:58;6.30;;;4.53;;
47519;SDS011;33252;48.122;11.538;2023-04-03T11:07:38;4.05;;;3.03;;
47519;SDS011;33252;48.122;11.538;2023-04-03T11:10:54;4.50;;;3.70;;
47519;SDS011;33252;48.122;11.538;2023-04-03T11:13:02;7.25;;;4.18;;
47519;SDS011;33252;48.122;11.538;2023-04-03T11:15:36;8.52;;;4.15;;
47519;SDS011;33252;48.122;11.538;2023-04-03T11:18:44;7.28;;;4.50;;
47519;SDS011;33252;48.122;11.538;2023-04-03T11:21:04;5.40;;;3.47;;
47519;SDS011;33252;48.122;11.538;2023-04-03T11:23:46;7.13;;;3.50;;
47519;SDS011;33252;48.122;11.538;2023-04-03T11:26:13;7.43;;;5.32;;
47519;SDS011;33252;48.122;11.538;2023-04-03T11:28:41;4.63;;;3.20;;
47519;SDS011;33252;48.122;11.538;2023-04-03T11:31:25;5.38;;;3.22;;
47519;SDS011;33252;48.122;11.538;2023-04-03T11:34:30;4.20;;;3.28;;
47519;SDS011;33252;48.122;11.538;2023-04-03T11:40:03;5.75;;;2.65;;
47519;SDS011;33252;48.122;11.538;2023-04-03T11:47:54;4.15;;;2.75;;
47519;SDS011;33252;48.122;11.538;2023-04-03T11:55:43;5.45;;;2.80;;
47519;SDS011;33252;48.122;11.538;2023-04-03T12:00:46;3.50;;;2.42;;
47519;SDS011;33252;48.122;11.538;2023-04-03T12:05:54;4.07;;;2.22;;
47519;SDS011;33252;48.122;11.538;2023-04-03T12:16:20;4.57;;;2.30;;
47519;SDS011;33252;48.122;11.538;2023-04-03T12:47:44;3.25;;;1.60;;
47519;SDS011;33252;48.122;11.538;2023-04-03T12:50:29;4.20;;;1.75;;
47519;SDS011;33252;48.122;11.538;2023-04-03T12:53:04;2.88;;;1.33;;
47519;SDS011;33252;48.122;11.538;2023-04-03T12:55:32;4.18;;;1.73;;
47519;SDS011;33252;48.122;11.538;2023-04-03T12:58:14;3.05;;;1.63;;
47519;SDS011;33252;48.122;11.538;2023-04-03T13:00:42;2.85;;;1.55;;
47519;SDS011;33252;48.122;11.538;2023-04-03T13:03:19;3.33;;;1.83;;
47519;SDS011;33252;48.122;11.538;2023-04-03T13:05:48;4.35;;;1.60;;
47519;SDS011;33252;48.122;11.538;2023-04-03T13:08:15;2.97;;;1.42;;
47519;SDS011;33252;48.122;11.538;2023-04-03T13:10:54;4.57;;;1.67;;
47519;SDS011;33252;48.122;11.538;2023-04-03T13:13:24;3.75;;;1.60;;
47519;SDS011;33252;48.122;11.538;2023-04-03T13:15:51;3.40;;;1.80;;
47519;SDS011;33252;48.122;11.538;2023-04-03T13:18:22;2.88;;;1.52;;
47519;SDS011;33252;48.122;11.538;2023-04-03T13:21:02;2.67;;;1.73;;
47519;SDS011;33252;48.122;11.538;2023-04-03T13:23:37;3.00;;;1.83;;
47519;SDS011;33252;48.122;11.538;2023-04-03T13:26:05;4.97;;;1.30;;
47519;SDS011;33252;48.122;11.538;2023-04-03T13:28:32;3.30;;;1.40;;
47519;SDS011;33252;48.122;11.538;2023-04-03T13:33:51;1.88;;;1.27;;
47519;SDS011;33252;48.122;11.538;2023-04-03T13:36:21;1.65;;;1.38;;
47519;SDS011;33252;48.122;11.538;2023-04-03T13:39:04;2.42;;;1.42;;
47519;SDS011;33252;48.122;11.538;2023-04-03T13:41:34;9.30;;;3.58;;
47519;SDS011;33252;48.122;11.538;2023-04-03T13:46:46;2.10;;;1.05;;
47519;SDS011;33252;48.122;11.538;2023-04-03T13:49:28;5.45;;;1.10;;
47519;SDS011;33252;48.122;11.538;2023-04-03T13:51:57;3.30;;;1.30;;
47519;SDS011;33252;48.122;11.538;2023-04-03T13:54:24;2.80;;;1.40;;
47519;SDS011;33252;48.122;11.538;2023-04-03T13:56:59;3.25;;;1.23;;
47519;SDS011;33252;48.122;11.538;2023-04-03T13:59:28;2.30;;;1.40;;
47519;SDS011;33252;48.122;11.538;2023-04-03T14:07:01;3.30;;;1.20;;
47519;SDS011;33252;48.122;11.538;2023-04-03T14:09:28;3.50;;;1.10;;
47519;SDS011;33252;48.122;11.538;2023-04-03T14:11:54;5.03;;;1.52;;
47519;SDS011;33252;48.122;11.538;2023-04-03T14:14:26;2.72;;;1.27;;
47519;SDS011;33252;48.122;11.538;2023-04-03T14:16:56;2.65;;;1.20;;
47519;SDS011;33252;48.122;11.538;2023-04-03T14:19:29;2.47;;;1.30;;
47519;SDS011;33252;48.122;11.538;2023-04-03T14:21:57;2.58;;;1.42;;
47519;SDS011;33252;48.122;11.538;2023-04-03T14:24:24;1.92;;;1.13;;
47519;SDS011;33252;48.122;11.538;2023-04-03T14:26:52;2.30;;;1.02;;
47519;SDS011;33252;48.122;11.538;2023-04-03T14:29:22;3.75;;;1.17;;
47519;SDS011;33252;48.122;11.538;2023-04-03T14:31:48;5.03;;;2.42;;
47519;SDS011;33252;48.122;11.538;2023-04-03T14:34:15;4.78;;;1.33;;
47519;SDS011;33252;48.122;11.538;2023-04-03T14:36:42;3.05;;;1.40;;
47519;SDS011;33252;48.122;11.538;2023-04-03T14:39:17;1.67;;;1.00;;
47519;SDS011;33252;48.122;11.538;2023-04-03T14:41:43;1.67;;;1.10;;
47519;SDS011;33252;48.122;11.538;2023-04-03T14:44:10;3.08;;;1.15;;
47519;SDS011;33252;48.122;11.538;2023-04-03T14:46:36;1.40;;;0.85;;
47519;SDS011;33252;48.122;11.538;2023-04-03T14:49:06;2.13;;;0.93;;
47519;SDS011;33252;48.122;11.538;2023-04-03T14:51:42;1.77;;;1.10;;
47519;SDS011;33252;48.122;11.538;2023-04-03T14:54:16;3.15;;;1.27;;
47519;SDS011;33252;48.122;11.538;2023-04-03T14:56:43;3.45;;;1.42;;
47519;SDS011;33252;48.122;11.538;2023-04-03T14:59:11;1.58;;;0.90;;
47519;SDS011;33252;48.122;11.538;2023-04-03T15:01:38;3.42;;;1.00;;
47519;SDS011;33252;48.122;11.538;2023-04-03T15:04:13;1.50;;;0.98;;
47519;SDS011;33252;48.122;11.538;2023-04-03T15:06:40;2.28;;;1.02;;
47519;SDS011;33252;48.122;11.538;2023-04-03T15:09:20;2.58;;;1.33;;
47519;SDS011;33252;48.122;11.538;2023-04-03T15:11:47;3.40;;;1.27;;
47519;SDS011;33252;48.122;11.538;2023-04-03T15:14:13;2.15;;;0.98;;
47519;SDS011;33252;48.122;11.538;2023-04-03T15:16:39;1.40;;;0.82;;
47519;SDS011;33252;48.122;11.538;2023-04-03T15:19:04;2.45;;;1.15;;
47519;SDS011;33252;48.122;11.538;2023-04-03T15:21:30;4.60;;;0.90;;
47519;SDS011;33252;48.122;11.538;2023-04-03T15:23:56;2.15;;;0.85;;
47519;SDS011;33252;48.122;11.538;2023-04-03T15:26:21;1.75;;;1.00;;
47519;SDS011;33252;48.122;11.538;2023-04-03T15:28:47;4.47;;;1.25;;
47519;SDS011;33252;48.122;11.538;2023-04-03T15:31:13;2.83;;;0.88;;
47519;SDS011;33252;48.122;11.538;2023-04-03T15:33:38;3.80;;;1.08;;
47519;SDS011;33252;48.122;11.538;2023-04-03T15:36:05;2.67;;;1.00;;
47519;SDS011;33252;48.122;11.538;2023-04-03T15:38:30;2.53;;;1.15;;
47519;SDS011;33252;48.122;11.538;2023-04-03T15:40:56;2.45;;;0.98;;
47519;SDS011;33252;48.122;11.538;2023-04-03T15:43:22;1.88;;;0.85;;
47519;SDS011;33252;48.122;11.538;2023-04-03T15:45:48;1.83;;;1.10;;
47519;SDS011;33252;48.122;11.538;2023-04-03T15:48:14;1.80;;;0.80;;
47519;SDS011;33252;48.122;11.538;2023-04-03T15:50:40;2.53;;;1.02;;
47519;SDS011;33252;48.122;11.538;2023-04-03T15:53:06;2.45;;;0.95;;
47519;SDS011;33252;48.122;11.538;2023-04-03T15:55:33;3.58;;;0.98;;
47519;SDS011;33252;48.122;11.538;2023-04-03T15:58:01;1.85;;;1.27;;
47519;SDS011;33252;48.122;11.538;2023-04-03T16:00:27;3.58;;;1.15;;
47519;SDS011;33252;48.122;11.538;2023-04-03T16:03:02;2.58;;;0.80;;
47519;SDS011;33252;48.122;11.538;2023-04-03T16:05:31;2.85;;;0.80;;
47519;SDS011;33252;48.122;11.538;2023-04-03T16:07:57;3.75;;;0.95;;
47519;SDS011;33252;48.122;11.538;2023-04-03T16:10:25;5.60;;;0.88;;
47519;SDS011;33252;48.122;11.538;2023-04-03T16:12:51;3.65;;;1.13;;
47519;SDS011;33252;48.122;11.538;2023-04-03T16:15:16;5.05;;;1.20;;
47519;SDS011;33252;48.122;11.538;2023-04-03T16:17:42;1.73;;;0.90;;
47519;SDS011;33252;48.122;11.538;2023-04-03T16:20:08;2.17;;;0.93;;
47519;SDS011;33252;48.122;11.538;2023-04-03T16:22:36;1.92;;;1.02;;
47519;SDS011;33252;48.122;11.538;2023-04-03T16:25:02;3.47;;;1.35;;
47519;SDS011;33252;48.122;11.538;2023-04-03T16:27:29;3.38;;;1.10;;
47519;SDS011;33252;48.122;11.538;2023-04-03T16:29:56;2.42;;;0.93;;
47519;SDS011;33252;48.122;11.538;2023-04-03T16:32:22;3.90;;;0.98;;
47519;SDS011;33252;48.122;11.538;2023-04-03T16:34:49;2.63;;;0.80;;
47519;SDS011;33252;48.122;11.538;2023-04-03T16:37:15;3.03;;;0.90;;